sensor_id;sensor_type;location;lat;lon;timestamp;pressure;altitude;pressure_sealevel;temperature;humidity
62011;BME280;47967;51.756;10.174;2022-08-25T00:00:44;100148.59;;;16.62;66.05
62011;BME280;47967;51.756;10.174;2022-08-25T00:04:47;100145.97;;;16.55;66.15
62011;BME280;47967;51.756;10.174;2022-08-25T00:08:55;100149.00;;;16.47;66.45
62011;BME280;47967;51.756;10.174;2022-08-25T00:13:01;100151.38;;;16.25;66.03
62011;BME280;47967;51.756;10.174;2022-08-25T00:17:04;100150.16;;;16.21;66.23
62011;BME280;47967;51.756;10.174;2022-08-25T00:21:07;100154.41;;;16.16;66.65
62011;BME280;47967;51.756;10.174;2022-08-25T00:25:11;100156.81;;;16.06;68.05
62011;BME280;47967;51.756;10.174;2022-08-25T00:29:14;100145.03;;;15.94;68.67
62011;BME280;47967;51.756;10.174;2022-08-25T00:33:17;100152.81;;;15.90;69.12
62011;BME280;47967;51.756;10.174;2022-08-25T00:37:20;100142.22;;;15.82;69.70
62011;BME280;47967;51.756;10.174;2022-08-25T00:41:24;100140.72;;;15.86;69.18
62011;BME280;47967;51.756;10.174;2022-08-25T00:45:27;100137.34;;;15.91;68.56
62011;BME280;47967;51.756;10.174;2022-08-25T00:49:33;100140.97;;;15.78;68.30
62011;BME280;47967;51.756;10.174;2022-08-25T00:53:38;100138.34;;;15.71;68.68
62011;BME280;47967;51.756;10.174;2022-08-25T00:57:45;100143.22;;;15.62;69.29
62011;BME280;47967;51.756;10.174;2022-08-25T01:01:49;100145.09;;;15.43;70.47
62011;BME280;47967;51.756;10.174;2022-08-25T01:05:53;100142.41;;;15.36;72.67
62011;BME280;47967;51.756;10.174;2022-08-25T01:09:58;100138.66;;;15.37;72.21
62011;BME280;47967;51.756;10.174;2022-08-25T01:14:03;100144.03;;;15.44;71.99
62011;BME280;47967;51.756;10.174;2022-08-25T01:18:06;100141.91;;;15.46;72.00
62011;BME280;47967;51.756;10.174;2022-08-25T01:22:11;100140.63;;;15.49;72.57
62011;BME280;47967;51.756;10.174;2022-08-25T01:26:15;100136.84;;;15.50;71.74
62011;BME280;47967;51.756;10.174;2022-08-25T01:30:22;100143.00;;;15.45;69.49
62011;BME280;47967;51.756;10.174;2022-08-25T01:34:27;100140.09;;;15.15;70.27
62011;BME280;47967;51.756;10.174;2022-08-25T01:38:31;100139.13;;;15.02;72.50
62011;BME280;47967;51.756;10.174;2022-08-25T01:42:41;100134.53;;;15.03;72.19
62011;BME280;47967;51.756;10.174;2022-08-25T01:46:47;100148.63;;;14.93;74.49
62011;BME280;47967;51.756;10.174;2022-08-25T01:50:50;100134.78;;;15.01;74.32
62011;BME280;47967;51.756;10.174;2022-08-25T01:54:54;100136.09;;;15.17;73.97
62011;BME280;47967;51.756;10.174;2022-08-25T01:58:57;100136.88;;;15.25;73.61
62011;BME280;47967;51.756;10.174;2022-08-25T02:02:59;100129.44;;;14.88;73.46
62011;BME280;47967;51.756;10.174;2022-08-25T02:07:06;100129.91;;;14.78;75.02
62011;BME280;47967;51.756;10.174;2022-08-25T02:11:12;100120.81;;;14.91;75.35
62011;BME280;47967;51.756;10.174;2022-08-25T02:15:15;100117.94;;;14.86;75.40
62011;BME280;47967;51.756;10.174;2022-08-25T02:19:19;100119.78;;;14.92;75.59
62011;BME280;47967;51.756;10.174;2022-08-25T02:23:22;100127.88;;;14.99;75.58
62011;BME280;47967;51.756;10.174;2022-08-25T02:27:26;100120.81;;;14.91;75.87
62011;BME280;47967;51.756;10.174;2022-08-25T02:31:29;100124.81;;;14.88;76.25
62011;BME280;47967;51.756;10.174;2022-08-25T02:35:32;100117.78;;;14.81;75.19
62011;BME280;47967;51.756;10.174;2022-08-25T02:39:35;100124.13;;;14.68;76.77
62011;BME280;47967;51.756;10.174;2022-08-25T02:43:40;100121.63;;;14.60;74.95
62011;BME280;47967;51.756;10.174;2022-08-25T02:47:43;100115.28;;;14.34;76.20
62011;BME280;47967;51.756;10.174;2022-08-25T02:51:46;100118.63;;;14.29;76.90
62011;BME280;47967;51.756;10.174;2022-08-25T02:55:48;100116.94;;;14.35;76.84
62011;BME280;47967;51.756;10.174;2022-08-25T02:59:52;100117.94;;;14.47;76.83
62011;BME280;47967;51.756;10.174;2022-08-25T03:03:56;100117.13;;;14.47;76.89
62011;BME280;47967;51.756;10.174;2022-08-25T03:07:59;100118.41;;;14.37;76.62
62011;BME280;47967;51.756;10.174;2022-08-25T03:12:02;100108.19;;;14.33;75.56
62011;BME280;47967;51.756;10.174;2022-08-25T03:16:07;100104.78;;;14.05;76.92
62011;BME280;47967;51.756;10.174;2022-08-25T03:20:12;100104.94;;;14.11;77.19
62011;BME280;47967;51.756;10.174;2022-08-25T03:24:15;100098.91;;;14.08;77.72
62011;BME280;47967;51.756;10.174;2022-08-25T03:28:18;100104.53;;;14.07;77.94
62011;BME280;47967;51.756;10.174;2022-08-25T03:32:26;100103.28;;;14.09;77.69
62011;BME280;47967;51.756;10.174;2022-08-25T03:36:29;100107.53;;;13.92;77.75
62011;BME280;47967;51.756;10.174;2022-08-25T03:40:31;100092.94;;;13.93;77.87
62011;BME280;47967;51.756;10.174;2022-08-25T03:44:34;100094.97;;;14.04;77.98
62011;BME280;47967;51.756;10.174;2022-08-25T03:48:38;100102.72;;;13.94;77.69
62011;BME280;47967;51.756;10.174;2022-08-25T03:52:41;100101.91;;;13.87;77.95
62011;BME280;47967;51.756;10.174;2022-08-25T03:56:44;100106.31;;;13.81;78.42
62011;BME280;47967;51.756;10.174;2022-08-25T04:00:46;100105.22;;;13.89;78.63
62011;BME280;47967;51.756;10.174;2022-08-25T04:04:50;100106.91;;;13.97;78.40
62011;BME280;47967;51.756;10.174;2022-08-25T04:08:56;100107.88;;;14.09;78.00
62011;BME280;47967;51.756;10.174;2022-08-25T04:12:59;100111.81;;;14.20;77.12
62011;BME280;47967;51.756;10.174;2022-08-25T04:17:02;100114.66;;;14.32;76.95
62011;BME280;47967;51.756;10.174;2022-08-25T04:21:07;100114.53;;;14.20;77.96
62011;BME280;47967;51.756;10.174;2022-08-25T04:25:11;100103.94;;;14.05;78.54
62011;BME280;47967;51.756;10.174;2022-08-25T04:29:15;100104.13;;;14.03;78.90
62011;BME280;47967;51.756;10.174;2022-08-25T04:33:18;100095.59;;;14.00;79.46
62011;BME280;47967;51.756;10.174;2022-08-25T04:37:22;100100.78;;;14.08;79.79
62011;BME280;47967;51.756;10.174;2022-08-25T04:41:25;100094.09;;;14.17;78.77
62011;BME280;47967;51.756;10.174;2022-08-25T04:45:28;100107.78;;;14.29;77.95
62011;BME280;47967;51.756;10.174;2022-08-25T04:49:31;100107.31;;;14.46;77.57
62011;BME280;47967;51.756;10.174;2022-08-25T04:53:35;100103.97;;;14.44;77.57
62011;BME280;47967;51.756;10.174;2022-08-25T04:57:38;100102.59;;;14.60;76.93
62011;BME280;47967;51.756;10.174;2022-08-25T05:01:41;100109.72;;;14.67;78.31
62011;BME280;47967;51.756;10.174;2022-08-25T05:05:51;100101.81;;;14.91;76.83
62011;BME280;47967;51.756;10.174;2022-08-25T05:09:55;100107.81;;;15.00;77.21
62011;BME280;47967;51.756;10.174;2022-08-25T05:14:00;100105.59;;;15.15;77.22
62011;BME280;47967;51.756;10.174;2022-08-25T05:18:03;100102.53;;;15.30;76.71
62011;BME280;47967;51.756;10.174;2022-08-25T05:22:05;100100.22;;;15.52;74.80
62011;BME280;47967;51.756;10.174;2022-08-25T05:26:12;100100.47;;;15.69;74.28
62011;BME280;47967;51.756;10.174;2022-08-25T05:30:20;100096.03;;;15.75;74.82
62011;BME280;47967;51.756;10.174;2022-08-25T05:34:23;100102.91;;;15.78;75.15
62011;BME280;47967;51.756;10.174;2022-08-25T05:38:26;100098.91;;;15.99;75.67
62011;BME280;47967;51.756;10.174;2022-08-25T05:42:30;100094.38;;;17.15;74.39
62011;BME280;47967;51.756;10.174;2022-08-25T05:46:33;100088.19;;;17.43;72.23
62011;BME280;47967;51.756;10.174;2022-08-25T05:50:35;100088.44;;;17.65;71.16
62011;BME280;47967;51.756;10.174;2022-08-25T05:54:38;100083.59;;;17.55;71.71
62011;BME280;47967;51.756;10.174;2022-08-25T05:58:43;100084.16;;;17.81;72.03
62011;BME280;47967;51.756;10.174;2022-08-25T06:02:46;100079.09;;;18.43;69.91
62011;BME280;47967;51.756;10.174;2022-08-25T06:06:49;100079.41;;;18.29;69.90
62011;BME280;47967;51.756;10.174;2022-08-25T06:10:54;100078.91;;;18.61;69.80
62011;BME280;47967;51.756;10.174;2022-08-25T06:14:59;100074.97;;;18.86;68.78
62011;BME280;47967;51.756;10.174;2022-08-25T06:19:02;100082.69;;;19.23;67.60
62011;BME280;47967;51.756;10.174;2022-08-25T06:23:04;100089.19;;;19.56;66.57
62011;BME280;47967;51.756;10.174;2022-08-25T06:27:07;100076.75;;;19.65;66.74
62011;BME280;47967;51.756;10.174;2022-08-25T06:31:11;100083.66;;;20.12;65.99
62011;BME280;47967;51.756;10.174;2022-08-25T06:35:16;100081.84;;;20.51;64.69
62011;BME280;47967;51.756;10.174;2022-08-25T06:39:19;100085.53;;;20.84;63.65
62011;BME280;47967;51.756;10.174;2022-08-25T06:43:23;100075.41;;;21.27;62.64
62011;BME280;47967;51.756;10.174;2022-08-25T06:47:27;100064.81;;;21.84;61.03
62011;BME280;47967;51.756;10.174;2022-08-25T06:51:30;100067.94;;;22.23;60.46
62011;BME280;47967;51.756;10.174;2022-08-25T06:55:33;100061.16;;;22.42;59.73
62011;BME280;47967;51.756;10.174;2022-08-25T06:59:36;100066.59;;;22.31;60.70
62011;BME280;47967;51.756;10.174;2022-08-25T07:03:43;100055.84;;;22.14;61.50
62011;BME280;47967;51.756;10.174;2022-08-25T07:07:46;100053.19;;;22.55;59.86
62011;BME280;47967;51.756;10.174;2022-08-25T07:11:48;100050.22;;;22.78;59.52
62011;BME280;47967;51.756;10.174;2022-08-25T07:15:53;100041.66;;;22.53;61.47
62011;BME280;47967;51.756;10.174;2022-08-25T07:19:57;100044.16;;;22.70;61.68
62011;BME280;47967;51.756;10.174;2022-08-25T07:24:01;100048.56;;;22.77;61.50
62011;BME280;47967;51.756;10.174;2022-08-25T07:28:06;100039.47;;;23.07;61.24
62011;BME280;47967;51.756;10.174;2022-08-25T07:32:10;100044.56;;;23.71;60.08
62011;BME280;47967;51.756;10.174;2022-08-25T07:36:14;100043.53;;;24.22;59.01
62011;BME280;47967;51.756;10.174;2022-08-25T07:40:20;100043.69;;;24.41;58.32
62011;BME280;47967;51.756;10.174;2022-08-25T07:44:24;100038.56;;;24.64;57.71
62011;BME280;47967;51.756;10.174;2022-08-25T07:48:28;100033.22;;;24.38;59.05
62011;BME280;47967;51.756;10.174;2022-08-25T07:52:32;100043.50;;;24.27;59.37
62011;BME280;47967;51.756;10.174;2022-08-25T07:56:39;100041.44;;;24.48;59.84
62011;BME280;47967;51.756;10.174;2022-08-25T08:00:46;100041.47;;;24.83;59.80
62011;BME280;47967;51.756;10.174;2022-08-25T08:04:52;100028.50;;;25.13;59.98
62011;BME280;47967;51.756;10.174;2022-08-25T08:08:57;100025.50;;;25.38;60.56
62011;BME280;47967;51.756;10.174;2022-08-25T08:13:01;100026.28;;;25.68;59.51
62011;BME280;47967;51.756;10.174;2022-08-25T08:17:09;100024.38;;;25.88;59.19
62011;BME280;47967;51.756;10.174;2022-08-25T08:21:13;100031.28;;;26.10;58.71
62011;BME280;47967;51.756;10.174;2022-08-25T08:25:22;100035.47;;;26.26;58.06
62011;BME280;47967;51.756;10.174;2022-08-25T08:29:28;100032.94;;;26.30;58.15
62011;BME280;47967;51.756;10.174;2022-08-25T08:33:32;100024.88;;;26.33;57.81
62011;BME280;47967;51.756;10.174;2022-08-25T08:37:41;100023.88;;;26.43;57.60
62011;BME280;47967;51.756;10.174;2022-08-25T08:46:20;100021.50;;;26.69;57.06
62011;BME280;47967;51.756;10.174;2022-08-25T08:50:31;100018.00;;;26.83;56.76
62011;BME280;47967;51.756;10.174;2022-08-25T08:54:38;100013.41;;;27.39;55.33
62011;BME280;47967;51.756;10.174;2022-08-25T08:58:46;100019.97;;;27.57;54.78
62011;BME280;47967;51.756;10.174;2022-08-25T09:02:53;100013.88;;;27.97;53.88
62011;BME280;47967;51.756;10.174;2022-08-25T09:07:02;100006.16;;;28.67;52.79
62011;BME280;47967;51.756;10.174;2022-08-25T09:11:12;100015.22;;;28.96;51.54
62011;BME280;47967;51.756;10.174;2022-08-25T09:15:27;100005.13;;;29.31;50.98
62011;BME280;47967;51.756;10.174;2022-08-25T09:20:06;100008.44;;;29.51;50.29
62011;BME280;47967;51.756;10.174;2022-08-25T09:24:31;99999.44;;;29.45;50.08
62011;BME280;47967;51.756;10.174;2022-08-25T09:28:42;99999.13;;;29.47;49.72
62011;BME280;47967;51.756;10.174;2022-08-25T09:32:54;99992.53;;;29.92;49.51
62011;BME280;47967;51.756;10.174;2022-08-25T09:37:05;99986.75;;;29.70;49.65
62011;BME280;47967;51.756;10.174;2022-08-25T09:41:08;99981.03;;;29.76;49.46
62011;BME280;47967;51.756;10.174;2022-08-25T09:45:12;99976.69;;;29.92;48.68
62011;BME280;47967;51.756;10.174;2022-08-25T09:49:18;99970.13;;;30.06;48.48
62011;BME280;47967;51.756;10.174;2022-08-25T09:53:21;99974.50;;;29.80;49.17
62011;BME280;47967;51.756;10.174;2022-08-25T09:57:34;99966.94;;;29.72;49.37
62011;BME280;47967;51.756;10.174;2022-08-25T10:01:46;99970.81;;;29.45;49.55
62011;BME280;47967;51.756;10.174;2022-08-25T10:06:02;99963.03;;;29.24;50.07
62011;BME280;47967;51.756;10.174;2022-08-25T10:10:17;99961.25;;;29.28;49.72
62011;BME280;47967;51.756;10.174;2022-08-25T10:14:27;99953.66;;;29.11;50.11
62011;BME280;47967;51.756;10.174;2022-08-25T10:18:36;99952.44;;;29.26;49.59
62011;BME280;47967;51.756;10.174;2022-08-25T10:22:41;99944.78;;;29.32;49.34
62011;BME280;47967;51.756;10.174;2022-08-25T10:26:51;99935.72;;;29.84;48.34
62011;BME280;47967;51.756;10.174;2022-08-25T10:31:09;99929.53;;;30.05;47.84
62011;BME280;47967;51.756;10.174;2022-08-25T10:35:17;99915.63;;;29.96;48.28
62011;BME280;47967;51.756;10.174;2022-08-25T10:39:32;99908.38;;;29.68;48.44
62011;BME280;47967;51.756;10.174;2022-08-25T10:43:45;99902.97;;;29.72;48.36
62011;BME280;47967;51.756;10.174;2022-08-25T10:48:04;99904.34;;;29.92;47.63
62011;BME280;47967;51.756;10.174;2022-08-25T10:52:14;99895.47;;;30.08;47.44
62011;BME280;47967;51.756;10.174;2022-08-25T10:56:22;99896.09;;;30.48;46.60
62011;BME280;47967;51.756;10.174;2022-08-25T11:00:30;99891.03;;;30.33;46.45
62011;BME280;47967;51.756;10.174;2022-08-25T11:04:43;99878.06;;;30.46;46.43
62011;BME280;47967;51.756;10.174;2022-08-25T11:08:50;99878.31;;;30.79;45.71
62011;BME280;47967;51.756;10.174;2022-08-25T11:12:58;99874.00;;;30.52;46.47
62011;BME280;47967;51.756;10.174;2022-08-25T11:17:08;99855.41;;;30.74;45.71
62011;BME280;47967;51.756;10.174;2022-08-25T11:21:15;99860.25;;;31.45;44.47
62011;BME280;47967;51.756;10.174;2022-08-25T11:25:26;99856.88;;;31.40;44.23
62011;BME280;47967;51.756;10.174;2022-08-25T11:29:34;99848.00;;;31.17;43.23
62011;BME280;47967;51.756;10.174;2022-08-25T11:33:40;99842.75;;;31.87;42.12
62011;BME280;47967;51.756;10.174;2022-08-25T11:37:45;99837.53;;;32.32;40.99
62011;BME280;47967;51.756;10.174;2022-08-25T11:42:06;99853.28;;;32.49;40.29
62011;BME280;47967;51.756;10.174;2022-08-25T11:46:25;99836.00;;;32.22;41.13
62011;BME280;47967;51.756;10.174;2022-08-25T11:50:33;99838.97;;;32.04;41.38
62011;BME280;47967;51.756;10.174;2022-08-25T11:54:42;99835.69;;;32.02;41.25
62011;BME280;47967;51.756;10.174;2022-08-25T11:58:49;99823.22;;;32.21;40.75
62011;BME280;47967;51.756;10.174;2022-08-25T12:02:53;99818.72;;;32.07;40.39
62011;BME280;47967;51.756;10.174;2022-08-25T12:07:26;99815.44;;;32.05;40.80
62011;BME280;47967;51.756;10.174;2022-08-25T12:11:44;99818.50;;;32.59;39.31
62011;BME280;47967;51.756;10.174;2022-08-25T12:15:58;99823.59;;;32.44;40.11
62011;BME280;47967;51.756;10.174;2022-08-25T12:20:05;99820.13;;;32.14;40.53
62011;BME280;47967;51.756;10.174;2022-08-25T12:24:12;99803.50;;;32.17;40.62
62011;BME280;47967;51.756;10.174;2022-08-25T12:28:28;99800.47;;;32.56;40.31
62011;BME280;47967;51.756;10.174;2022-08-25T12:32:49;99794.41;;;32.66;39.27
62011;BME280;47967;51.756;10.174;2022-08-25T12:37:00;99789.16;;;32.65;39.77
62011;BME280;47967;51.756;10.174;2022-08-25T12:41:09;99786.72;;;32.51;39.68
62011;BME280;47967;51.756;10.174;2022-08-25T12:45:31;99779.19;;;32.76;38.97
62011;BME280;47967;51.756;10.174;2022-08-25T12:49:34;99784.84;;;32.30;39.58
62011;BME280;47967;51.756;10.174;2022-08-25T12:53:40;99785.34;;;32.45;39.55
62011;BME280;47967;51.756;10.174;2022-08-25T12:57:45;99774.97;;;32.70;39.19
62011;BME280;47967;51.756;10.174;2022-08-25T13:02:00;99772.53;;;32.81;38.30
62011;BME280;47967;51.756;10.174;2022-08-25T13:10:44;99766.78;;;33.02;38.92
62011;BME280;47967;51.756;10.174;2022-08-25T13:14:51;99760.94;;;33.32;38.62
62011;BME280;47967;51.756;10.174;2022-08-25T13:18:56;99757.94;;;33.53;37.92
62011;BME280;47967;51.756;10.174;2022-08-25T13:23:01;99755.19;;;33.69;37.38
62011;BME280;47967;51.756;10.174;2022-08-25T13:27:08;99757.03;;;34.22;37.05
62011;BME280;47967;51.756;10.174;2022-08-25T13:31:15;99758.00;;;34.29;36.59
62011;BME280;47967;51.756;10.174;2022-08-25T13:35:22;99745.63;;;34.30;36.03
62011;BME280;47967;51.756;10.174;2022-08-25T13:39:34;99748.97;;;34.20;36.45
62011;BME280;47967;51.756;10.174;2022-08-25T13:43:58;99737.31;;;34.18;36.11
62011;BME280;47967;51.756;10.174;2022-08-25T13:48:03;99734.78;;;34.13;36.00
62011;BME280;47967;51.756;10.174;2022-08-25T13:52:06;99730.66;;;34.39;36.22
62011;BME280;47967;51.756;10.174;2022-08-25T13:56:22;99720.38;;;34.78;35.31
62011;BME280;47967;51.756;10.174;2022-08-25T14:00:32;99719.34;;;35.42;33.96
62011;BME280;47967;51.756;10.174;2022-08-25T14:04:45;99711.50;;;35.12;33.43
62011;BME280;47967;51.756;10.174;2022-08-25T14:09:11;99716.75;;;34.94;35.09
62011;BME280;47967;51.756;10.174;2022-08-25T14:13:30;99703.09;;;35.94;33.37
62011;BME280;47967;51.756;10.174;2022-08-25T14:17:36;99709.53;;;35.95;33.52
62011;BME280;47967;51.756;10.174;2022-08-25T14:21:41;99706.69;;;35.71;34.07
62011;BME280;47967;51.756;10.174;2022-08-25T14:25:44;99705.63;;;35.80;33.92
62011;BME280;47967;51.756;10.174;2022-08-25T14:29:46;99719.41;;;35.65;33.94
62011;BME280;47967;51.756;10.174;2022-08-25T14:33:56;99710.75;;;35.54;34.19
62011;BME280;47967;51.756;10.174;2022-08-25T14:38:02;99702.00;;;35.56;33.55
62011;BME280;47967;51.756;10.174;2022-08-25T14:42:09;99702.91;;;35.40;33.94
62011;BME280;47967;51.756;10.174;2022-08-25T14:46:19;99697.03;;;35.10;34.49
62011;BME280;47967;51.756;10.174;2022-08-25T14:50:25;99687.06;;;34.93;33.93
62011;BME280;47967;51.756;10.174;2022-08-25T14:54:27;99678.16;;;34.71;33.90
62011;BME280;47967;51.756;10.174;2022-08-25T14:58:35;99680.03;;;34.83;33.87
62011;BME280;47967;51.756;10.174;2022-08-25T15:02:54;99676.25;;;34.75;34.03
62011;BME280;47967;51.756;10.174;2022-08-25T15:06:59;99670.91;;;34.70;34.24
62011;BME280;47967;51.756;10.174;2022-08-25T15:11:24;99671.19;;;35.01;33.99
62011;BME280;47967;51.756;10.174;2022-08-25T15:15:29;99665.44;;;34.93;33.21
62011;BME280;47967;51.756;10.174;2022-08-25T15:19:33;99664.84;;;34.84;33.09
62011;BME280;47967;51.756;10.174;2022-08-25T15:23:38;99660.13;;;35.08;34.33
62011;BME280;47967;51.756;10.174;2022-08-25T15:27:45;99665.38;;;35.09;34.20
62011;BME280;47967;51.756;10.174;2022-08-25T15:31:48;99660.94;;;35.28;33.94
62011;BME280;47967;51.756;10.174;2022-08-25T15:35:51;99650.53;;;35.29;33.65
62011;BME280;47967;51.756;10.174;2022-08-25T15:39:55;99668.91;;;35.26;33.76
62011;BME280;47967;51.756;10.174;2022-08-25T15:43:58;99655.81;;;35.77;33.14
62011;BME280;47967;51.756;10.174;2022-08-25T15:48:01;99658.28;;;35.78;32.78
62011;BME280;47967;51.756;10.174;2022-08-25T15:52:07;99652.94;;;35.30;33.43
62011;BME280;47967;51.756;10.174;2022-08-25T15:56:12;99642.50;;;35.07;33.69
62011;BME280;47967;51.756;10.174;2022-08-25T16:00:27;99641.25;;;35.24;33.96
62011;BME280;47967;51.756;10.174;2022-08-25T16:04:32;99634.03;;;35.04;34.33
62011;BME280;47967;51.756;10.174;2022-08-25T16:08:35;99627.16;;;34.82;34.62
62011;BME280;47967;51.756;10.174;2022-08-25T16:12:40;99625.69;;;34.88;34.05
62011;BME280;47967;51.756;10.174;2022-08-25T16:16:43;99613.53;;;35.23;33.50
62011;BME280;47967;51.756;10.174;2022-08-25T16:20:46;99618.38;;;35.03;33.50
62011;BME280;47967;51.756;10.174;2022-08-25T16:24:49;99612.00;;;34.67;34.26
62011;BME280;47967;51.756;10.174;2022-08-25T16:28:53;99602.53;;;34.20;35.14
62011;BME280;47967;51.756;10.174;2022-08-25T16:32:56;99601.47;;;33.92;35.81
62011;BME280;47967;51.756;10.174;2022-08-25T16:37:01;99604.38;;;33.96;35.30
62011;BME280;47967;51.756;10.174;2022-08-25T16:41:07;99608.22;;;34.39;35.30
62011;BME280;47967;51.756;10.174;2022-08-25T16:45:11;99599.13;;;34.82;34.60
62011;BME280;47967;51.756;10.174;2022-08-25T16:49:14;99603.69;;;34.90;34.42
62011;BME280;47967;51.756;10.174;2022-08-25T16:53:17;99601.78;;;34.94;33.95
62011;BME280;47967;51.756;10.174;2022-08-25T16:57:36;99602.41;;;34.32;34.31
62011;BME280;47967;51.756;10.174;2022-08-25T17:01:41;99605.06;;;34.25;34.76
62011;BME280;47967;51.756;10.174;2022-08-25T17:05:44;99606.97;;;33.57;36.10
62011;BME280;47967;51.756;10.174;2022-08-25T17:09:49;99606.53;;;33.26;36.46
62011;BME280;47967;51.756;10.174;2022-08-25T17:13:58;99605.66;;;32.94;37.57
62011;BME280;47967;51.756;10.174;2022-08-25T17:18:04;99603.84;;;32.73;37.15
62011;BME280;47967;51.756;10.174;2022-08-25T17:22:11;99600.22;;;32.72;37.35
62011;BME280;47967;51.756;10.174;2022-08-25T17:26:16;99605.69;;;32.69;38.01
62011;BME280;47967;51.756;10.174;2022-08-25T17:30:19;99611.00;;;32.99;37.86
62011;BME280;47967;51.756;10.174;2022-08-25T17:34:23;99613.31;;;32.97;37.59
62011;BME280;47967;51.756;10.174;2022-08-25T17:38:28;99603.28;;;32.67;37.06
62011;BME280;47967;51.756;10.174;2022-08-25T17:42:33;99603.63;;;32.66;37.12
62011;BME280;47967;51.756;10.174;2022-08-25T17:46:37;99612.31;;;32.23;37.11
62011;BME280;47967;51.756;10.174;2022-08-25T17:50:49;99607.41;;;31.83;38.01
62011;BME280;47967;51.756;10.174;2022-08-25T17:54:52;99609.53;;;31.40;38.58
62011;BME280;47967;51.756;10.174;2022-08-25T17:58:59;99619.00;;;31.27;38.83
62011;BME280;47967;51.756;10.174;2022-08-25T18:03:03;99619.53;;;30.87;40.09
62011;BME280;47967;51.756;10.174;2022-08-25T18:07:07;99622.53;;;30.60;40.58
62011;BME280;47967;51.756;10.174;2022-08-25T18:11:10;99616.81;;;30.27;41.33
62011;BME280;47967;51.756;10.174;2022-08-25T18:15:14;99622.84;;;29.99;42.25
62011;BME280;47967;51.756;10.174;2022-08-25T18:19:18;99620.03;;;29.69;43.29
62011;BME280;47967;51.756;10.174;2022-08-25T18:23:22;99618.78;;;29.40;43.76
62011;BME280;47967;51.756;10.174;2022-08-25T18:27:25;99627.13;;;29.14;44.13
62011;BME280;47967;51.756;10.174;2022-08-25T18:31:29;99625.03;;;28.75;45.30
62011;BME280;47967;51.756;10.174;2022-08-25T18:35:32;99630.53;;;28.49;45.97
62011;BME280;47967;51.756;10.174;2022-08-25T18:39:36;99629.59;;;28.05;45.47
62011;BME280;47967;51.756;10.174;2022-08-25T18:43:56;99642.28;;;27.66;46.82
62011;BME280;47967;51.756;10.174;2022-08-25T18:47:59;99634.56;;;27.31;48.14
62011;BME280;47967;51.756;10.174;2022-08-25T18:56:45;99642.06;;;26.57;50.98
62011;BME280;47967;51.756;10.174;2022-08-25T19:00:47;99646.94;;;26.24;52.21
62011;BME280;47967;51.756;10.174;2022-08-25T19:04:50;99642.19;;;25.96;53.09
62011;BME280;47967;51.756;10.174;2022-08-25T19:08:53;99638.41;;;25.92;53.57
62011;BME280;47967;51.756;10.174;2022-08-25T19:12:58;99644.41;;;25.80;54.28
62011;BME280;47967;51.756;10.174;2022-08-25T19:17:08;99644.41;;;25.66;54.47
62011;BME280;47967;51.756;10.174;2022-08-25T19:21:11;99645.00;;;25.63;55.12
62011;BME280;47967;51.756;10.174;2022-08-25T19:25:14;99654.47;;;25.76;54.42
62011;BME280;47967;51.756;10.174;2022-08-25T19:29:18;99649.66;;;25.82;54.61
62011;BME280;47967;51.756;10.174;2022-08-25T19:33:20;99654.88;;;25.83;54.44
62011;BME280;47967;51.756;10.174;2022-08-25T19:37:43;99649.41;;;25.50;54.12
62011;BME280;47967;51.756;10.174;2022-08-25T19:41:46;99654.59;;;25.38;54.49
62011;BME280;47967;51.756;10.174;2022-08-25T19:45:50;99664.50;;;25.20;55.75
62011;BME280;47967;51.756;10.174;2022-08-25T19:49:53;99655.66;;;25.04;56.35
62011;BME280;47967;51.756;10.174;2022-08-25T19:53:56;99652.13;;;24.98;57.09
62011;BME280;47967;51.756;10.174;2022-08-25T19:58:03;99651.69;;;24.91;56.87
62011;BME280;47967;51.756;10.174;2022-08-25T20:02:08;99649.47;;;24.93;56.53
62011;BME280;47967;51.756;10.174;2022-08-25T20:06:12;99650.22;;;24.80;57.05
62011;BME280;47967;51.756;10.174;2022-08-25T20:10:17;99647.63;;;24.64;56.55
62011;BME280;47967;51.756;10.174;2022-08-25T20:14:20;99645.50;;;24.37;57.55
62011;BME280;47967;51.756;10.174;2022-08-25T20:18:24;99645.13;;;24.24;58.50
62011;BME280;47967;51.756;10.174;2022-08-25T20:22:30;99649.28;;;24.22;58.94
62011;BME280;47967;51.756;10.174;2022-08-25T20:26:33;99645.13;;;24.00;59.51
62011;BME280;47967;51.756;10.174;2022-08-25T20:30:36;99656.97;;;24.01;60.18
62011;BME280;47967;51.756;10.174;2022-08-25T20:34:42;99650.03;;;24.03;60.08
62011;BME280;47967;51.756;10.174;2022-08-25T20:38:50;99662.72;;;24.04;59.91
62011;BME280;47967;51.756;10.174;2022-08-25T20:42:53;99657.31;;;23.94;60.44
62011;BME280;47967;51.756;10.174;2022-08-25T20:46:55;99650.72;;;23.90;59.47
62011;BME280;47967;51.756;10.174;2022-08-25T20:51:02;99654.56;;;23.89;59.84
62011;BME280;47967;51.756;10.174;2022-08-25T20:55:06;99652.00;;;23.73;60.11
62011;BME280;47967;51.756;10.174;2022-08-25T20:59:09;99661.13;;;23.69;59.94
62011;BME280;47967;51.756;10.174;2022-08-25T21:03:12;99657.44;;;23.49;60.61
62011;BME280;47967;51.756;10.174;2022-08-25T21:07:16;99659.53;;;23.33;61.46
62011;BME280;47967;51.756;10.174;2022-08-25T21:11:19;99654.63;;;23.25;61.75
62011;BME280;47967;51.756;10.174;2022-08-25T21:15:23;99655.47;;;23.20;61.60
62011;BME280;47967;51.756;10.174;2022-08-25T21:19:27;99654.78;;;22.99;62.38
62011;BME280;47967;51.756;10.174;2022-08-25T21:23:31;99655.03;;;23.02;62.09
62011;BME280;47967;51.756;10.174;2022-08-25T21:27:34;99652.88;;;22.94;62.78
62011;BME280;47967;51.756;10.174;2022-08-25T21:31:38;99655.00;;;22.63;63.36